sensor_id;sensor_type;location;lat;lon;timestamp;P1;durP1;ratioP1;P2;durP2;ratioP2
20731;SDS011;10527;52.124;5.196;2022-11-20T00:01:27;21.70;;;12.60;;
20731;SDS011;10527;52.124;5.196;2022-11-20T00:03:55;20.93;;;13.10;;
20731;SDS011;10527;52.124;5.196;2022-11-20T00:06:24;22.33;;;13.77;;
20731;SDS011;10527;52.124;5.196;2022-11-20T00:08:54;22.43;;;13.97;;
20731;SDS011;10527;52.124;5.196;2022-11-20T00:11:23;28.10;;;15.73;;
20731;SDS011;10527;52.124;5.196;2022-11-20T00:13:53;26.40;;;15.37;;
20731;SDS011;10527;52.124;5.196;2022-11-20T00:16:25;22.60;;;14.07;;
20731;SDS011;10527;52.124;5.196;2022-11-20T00:18:54;19.77;;;12.63;;
20731;SDS011;10527;52.124;5.196;2022-11-20T00:21:22;22.10;;;13.03;;
20731;SDS011;10527;52.124;5.196;2022-11-20T00:23:52;21.80;;;12.97;;
20731;SDS011;10527;52.124;5.196;2022-11-20T00:26:22;21.03;;;12.33;;
20731;SDS011;10527;52.124;5.196;2022-11-20T00:28:54;19.40;;;12.10;;
20731;SDS011;10527;52.124;5.196;2022-11-20T00:31:26;18.20;;;11.07;;
20731;SDS011;10527;52.124;5.196;2022-11-20T00:33:54;14.27;;;10.10;;
20731;SDS011;10527;52.124;5.196;2022-11-20T00:36:22;13.60;;;10.00;;
20731;SDS011;10527;52.124;5.196;2022-11-20T00:38:56;16.17;;;11.30;;
20731;SDS011;10527;52.124;5.196;2022-11-20T00:41:39;15.77;;;11.27;;
20731;SDS011;10527;52.124;5.196;2022-11-20T00:44:05;14.87;;;10.63;;
20731;SDS011;10527;52.124;5.196;2022-11-20T00:46:32;22.23;;;12.43;;
20731;SDS011;10527;52.124;5.196;2022-11-20T00:49:00;22.37;;;13.03;;
20731;SDS011;10527;52.124;5.196;2022-11-20T00:51:27;24.47;;;13.57;;
20731;SDS011;10527;52.124;5.196;2022-11-20T00:53:54;26.37;;;14.67;;
20731;SDS011;10527;52.124;5.196;2022-11-20T00:56:23;30.20;;;15.23;;
20731;SDS011;10527;52.124;5.196;2022-11-20T00:58:50;30.00;;;15.97;;
20731;SDS011;10527;52.124;5.196;2022-11-20T01:01:18;21.23;;;13.40;;
20731;SDS011;10527;52.124;5.196;2022-11-20T01:03:54;20.73;;;12.97;;
20731;SDS011;10527;52.124;5.196;2022-11-20T01:06:24;18.00;;;12.63;;
20731;SDS011;10527;52.124;5.196;2022-11-20T01:09:08;17.43;;;12.43;;
20731;SDS011;10527;52.124;5.196;2022-11-20T01:11:41;19.27;;;11.93;;
20731;SDS011;10527;52.124;5.196;2022-11-20T01:14:13;18.53;;;11.83;;
20731;SDS011;10527;52.124;5.196;2022-11-20T01:16:44;16.07;;;11.87;;
20731;SDS011;10527;52.124;5.196;2022-11-20T01:19:15;18.47;;;12.13;;
20731;SDS011;10527;52.124;5.196;2022-11-20T01:21:47;17.53;;;11.60;;
20731;SDS011;10527;52.124;5.196;2022-11-20T01:24:18;16.63;;;11.33;;
20731;SDS011;10527;52.124;5.196;2022-11-20T01:26:48;18.57;;;11.90;;
20731;SDS011;10527;52.124;5.196;2022-11-20T01:29:21;18.43;;;11.17;;
20731;SDS011;10527;52.124;5.196;2022-11-20T01:31:50;17.03;;;10.77;;
20731;SDS011;10527;52.124;5.196;2022-11-20T01:34:19;15.70;;;10.60;;
20731;SDS011;10527;52.124;5.196;2022-11-20T01:36:48;16.27;;;10.47;;
20731;SDS011;10527;52.124;5.196;2022-11-20T01:39:17;15.27;;;10.33;;
20731;SDS011;10527;52.124;5.196;2022-11-20T01:41:51;13.97;;;9.83;;
20731;SDS011;10527;52.124;5.196;2022-11-20T01:47:14;13.47;;;9.07;;
20731;SDS011;10527;52.124;5.196;2022-11-20T01:50:02;15.57;;;10.67;;
20731;SDS011;10527;52.124;5.196;2022-11-20T01:52:50;14.37;;;10.00;;
20731;SDS011;10527;52.124;5.196;2022-11-20T01:55:31;12.93;;;9.77;;
20731;SDS011;10527;52.124;5.196;2022-11-20T01:58:05;15.77;;;10.17;;
20731;SDS011;10527;52.124;5.196;2022-11-20T02:00:35;15.37;;;9.70;;
20731;SDS011;10527;52.124;5.196;2022-11-20T02:03:11;13.90;;;9.13;;
20731;SDS011;10527;52.124;5.196;2022-11-20T02:05:45;16.10;;;9.77;;
20731;SDS011;10527;52.124;5.196;2022-11-20T02:08:23;14.07;;;9.70;;
20731;SDS011;10527;52.124;5.196;2022-11-20T02:10:50;15.07;;;10.30;;
20731;SDS011;10527;52.124;5.196;2022-11-20T02:13:17;14.77;;;10.10;;
20731;SDS011;10527;52.124;5.196;2022-11-20T02:16:02;14.87;;;10.20;;
20731;SDS011;10527;52.124;5.196;2022-11-20T02:18:30;12.50;;;8.73;;
20731;SDS011;10527;52.124;5.196;2022-11-20T02:21:13;13.10;;;9.00;;
20731;SDS011;10527;52.124;5.196;2022-11-20T02:26:59;11.30;;;8.87;;
20731;SDS011;10527;52.124;5.196;2022-11-20T02:32:43;13.67;;;9.17;;
20731;SDS011;10527;52.124;5.196;2022-11-20T02:37:44;14.47;;;9.17;;
20731;SDS011;10527;52.124;5.196;2022-11-20T02:40:17;12.37;;;8.47;;
20731;SDS011;10527;52.124;5.196;2022-11-20T02:42:43;13.17;;;8.60;;
20731;SDS011;10527;52.124;5.196;2022-11-20T02:45:10;12.60;;;9.13;;
20731;SDS011;10527;52.124;5.196;2022-11-20T02:47:37;12.43;;;8.90;;
20731;SDS011;10527;52.124;5.196;2022-11-20T02:50:04;13.93;;;8.43;;
20731;SDS011;10527;52.124;5.196;2022-11-20T02:52:32;14.50;;;9.03;;
20731;SDS011;10527;52.124;5.196;2022-11-20T02:54:59;12.10;;;8.90;;
20731;SDS011;10527;52.124;5.196;2022-11-20T02:57:26;15.13;;;10.07;;
20731;SDS011;10527;52.124;5.196;2022-11-20T02:59:54;12.80;;;8.80;;
20731;SDS011;10527;52.124;5.196;2022-11-20T03:02:21;11.77;;;8.57;;
20731;SDS011;10527;52.124;5.196;2022-11-20T03:04:50;13.73;;;9.03;;
20731;SDS011;10527;52.124;5.196;2022-11-20T03:07:17;12.27;;;8.43;;
20731;SDS011;10527;52.124;5.196;2022-11-20T03:09:43;12.63;;;9.07;;
20731;SDS011;10527;52.124;5.196;2022-11-20T03:12:12;15.83;;;9.27;;
20731;SDS011;10527;52.124;5.196;2022-11-20T03:14:39;12.53;;;8.87;;
20731;SDS011;10527;52.124;5.196;2022-11-20T03:17:07;13.03;;;8.83;;
20731;SDS011;10527;52.124;5.196;2022-11-20T03:19:34;13.20;;;8.80;;
20731;SDS011;10527;52.124;5.196;2022-11-20T03:22:02;12.67;;;8.40;;
20731;SDS011;10527;52.124;5.196;2022-11-20T03:24:29;11.70;;;8.33;;
20731;SDS011;10527;52.124;5.196;2022-11-20T03:26:55;13.70;;;9.20;;
20731;SDS011;10527;52.124;5.196;2022-11-20T03:29:22;11.27;;;8.20;;
20731;SDS011;10527;52.124;5.196;2022-11-20T03:31:49;12.30;;;9.30;;
20731;SDS011;10527;52.124;5.196;2022-11-20T03:34:16;16.60;;;8.80;;
20731;SDS011;10527;52.124;5.196;2022-11-20T03:36:42;10.23;;;8.00;;
20731;SDS011;10527;52.124;5.196;2022-11-20T03:39:09;11.80;;;8.37;;
20731;SDS011;10527;52.124;5.196;2022-11-20T03:41:37;11.47;;;8.97;;
20731;SDS011;10527;52.124;5.196;2022-11-20T03:44:08;12.63;;;8.83;;
20731;SDS011;10527;52.124;5.196;2022-11-20T03:46:37;14.47;;;8.37;;
20731;SDS011;10527;52.124;5.196;2022-11-20T03:49:04;11.70;;;8.30;;
20731;SDS011;10527;52.124;5.196;2022-11-20T03:51:32;14.57;;;8.50;;
20731;SDS011;10527;52.124;5.196;2022-11-20T03:54:02;10.70;;;7.50;;
20731;SDS011;10527;52.124;5.196;2022-11-20T03:56:34;11.33;;;8.77;;
20731;SDS011;10527;52.124;5.196;2022-11-20T03:59:04;12.13;;;8.77;;
20731;SDS011;10527;52.124;5.196;2022-11-20T04:01:32;11.27;;;8.97;;
20731;SDS011;10527;52.124;5.196;2022-11-20T04:04:03;11.90;;;8.53;;
20731;SDS011;10527;52.124;5.196;2022-11-20T04:06:36;12.03;;;8.57;;
20731;SDS011;10527;52.124;5.196;2022-11-20T04:09:05;13.57;;;9.07;;
20731;SDS011;10527;52.124;5.196;2022-11-20T04:11:33;13.47;;;8.17;;
20731;SDS011;10527;52.124;5.196;2022-11-20T04:14:03;11.03;;;8.23;;
20731;SDS011;10527;52.124;5.196;2022-11-20T04:16:33;13.93;;;8.47;;
20731;SDS011;10527;52.124;5.196;2022-11-20T04:19:03;12.77;;;8.93;;
20731;SDS011;10527;52.124;5.196;2022-11-20T04:21:33;11.17;;;8.30;;
20731;SDS011;10527;52.124;5.196;2022-11-20T04:24:00;14.40;;;8.80;;
20731;SDS011;10527;52.124;5.196;2022-11-20T04:26:27;11.90;;;8.33;;
20731;SDS011;10527;52.124;5.196;2022-11-20T04:28:56;11.60;;;8.33;;
20731;SDS011;10527;52.124;5.196;2022-11-20T04:31:25;12.13;;;8.60;;
20731;SDS011;10527;52.124;5.196;2022-11-20T04:33:58;11.00;;;8.30;;
20731;SDS011;10527;52.124;5.196;2022-11-20T04:36:29;10.40;;;8.33;;
20731;SDS011;10527;52.124;5.196;2022-11-20T04:38:57;11.10;;;8.70;;
20731;SDS011;10527;52.124;5.196;2022-11-20T04:41:28;12.03;;;8.57;;
20731;SDS011;10527;52.124;5.196;2022-11-20T04:43:59;16.73;;;9.67;;
20731;SDS011;10527;52.124;5.196;2022-11-20T04:46:31;13.27;;;8.60;;
20731;SDS011;10527;52.124;5.196;2022-11-20T04:49:03;11.93;;;8.77;;
20731;SDS011;10527;52.124;5.196;2022-11-20T04:51:31;12.27;;;8.43;;
20731;SDS011;10527;52.124;5.196;2022-11-20T04:53:59;12.53;;;8.27;;
20731;SDS011;10527;52.124;5.196;2022-11-20T04:56:26;13.00;;;8.73;;
20731;SDS011;10527;52.124;5.196;2022-11-20T04:58:52;13.30;;;8.70;;
20731;SDS011;10527;52.124;5.196;2022-11-20T05:01:20;12.10;;;8.33;;
20731;SDS011;10527;52.124;5.196;2022-11-20T05:03:49;11.77;;;8.63;;
20731;SDS011;10527;52.124;5.196;2022-11-20T05:06:18;11.20;;;8.23;;
20731;SDS011;10527;52.124;5.196;2022-11-20T05:08:47;10.67;;;7.60;;
20731;SDS011;10527;52.124;5.196;2022-11-20T05:11:20;12.77;;;8.40;;
20731;SDS011;10527;52.124;5.196;2022-11-20T05:13:48;14.33;;;8.83;;
20731;SDS011;10527;52.124;5.196;2022-11-20T05:16:19;10.70;;;7.83;;
20731;SDS011;10527;52.124;5.196;2022-11-20T05:18:49;11.10;;;8.77;;
20731;SDS011;10527;52.124;5.196;2022-11-20T05:21:18;11.03;;;8.27;;
20731;SDS011;10527;52.124;5.196;2022-11-20T05:23:45;11.93;;;8.00;;
20731;SDS011;10527;52.124;5.196;2022-11-20T05:26:16;11.40;;;8.30;;
20731;SDS011;10527;52.124;5.196;2022-11-20T05:28:48;12.07;;;8.70;;
20731;SDS011;10527;52.124;5.196;2022-11-20T05:31:17;11.13;;;7.80;;
20731;SDS011;10527;52.124;5.196;2022-11-20T05:33:53;10.37;;;7.43;;
20731;SDS011;10527;52.124;5.196;2022-11-20T05:36:21;13.67;;;8.50;;
20731;SDS011;10527;52.124;5.196;2022-11-20T05:38:48;10.97;;;8.10;;
20731;SDS011;10527;52.124;5.196;2022-11-20T05:41:19;11.73;;;8.50;;
20731;SDS011;10527;52.124;5.196;2022-11-20T05:43:47;10.07;;;8.47;;
20731;SDS011;10527;52.124;5.196;2022-11-20T05:46:16;13.13;;;9.10;;
20731;SDS011;10527;52.124;5.196;2022-11-20T05:48:54;11.93;;;8.20;;
20731;SDS011;10527;52.124;5.196;2022-11-20T05:51:24;12.40;;;8.03;;
20731;SDS011;10527;52.124;5.196;2022-11-20T05:53:51;11.73;;;8.20;;
20731;SDS011;10527;52.124;5.196;2022-11-20T05:56:19;11.77;;;7.90;;
20731;SDS011;10527;52.124;5.196;2022-11-20T05:58:47;10.70;;;8.37;;
20731;SDS011;10527;52.124;5.196;2022-11-20T06:01:19;12.47;;;8.80;;
20731;SDS011;10527;52.124;5.196;2022-11-20T06:03:50;12.10;;;8.20;;
20731;SDS011;10527;52.124;5.196;2022-11-20T06:06:19;10.73;;;8.37;;
20731;SDS011;10527;52.124;5.196;2022-11-20T06:08:48;11.07;;;7.70;;
20731;SDS011;10527;52.124;5.196;2022-11-20T06:11:15;11.73;;;8.60;;
20731;SDS011;10527;52.124;5.196;2022-11-20T06:13:45;11.73;;;9.17;;
20731;SDS011;10527;52.124;5.196;2022-11-20T06:16:14;13.77;;;8.03;;
20731;SDS011;10527;52.124;5.196;2022-11-20T06:18:43;11.07;;;8.27;;
20731;SDS011;10527;52.124;5.196;2022-11-20T06:21:13;12.10;;;8.03;;
20731;SDS011;10527;52.124;5.196;2022-11-20T06:23:45;12.00;;;8.27;;
20731;SDS011;10527;52.124;5.196;2022-11-20T06:26:25;10.07;;;7.47;;
20731;SDS011;10527;52.124;5.196;2022-11-20T06:28:53;9.63;;;8.17;;
20731;SDS011;10527;52.124;5.196;2022-11-20T06:31:22;14.37;;;8.47;;
20731;SDS011;10527;52.124;5.196;2022-11-20T06:33:51;11.47;;;8.17;;
20731;SDS011;10527;52.124;5.196;2022-11-20T06:36:19;10.00;;;7.77;;
20731;SDS011;10527;52.124;5.196;2022-11-20T06:38:49;11.30;;;8.30;;
20731;SDS011;10527;52.124;5.196;2022-11-20T06:41:17;11.47;;;7.80;;
20731;SDS011;10527;52.124;5.196;2022-11-20T06:43:46;11.70;;;8.30;;
20731;SDS011;10527;52.124;5.196;2022-11-20T06:46:16;11.40;;;8.43;;
20731;SDS011;10527;52.124;5.196;2022-11-20T06:48:46;10.87;;;8.53;;
20731;SDS011;10527;52.124;5.196;2022-11-20T06:51:14;12.63;;;8.13;;
20731;SDS011;10527;52.124;5.196;2022-11-20T06:53:41;12.73;;;8.57;;
20731;SDS011;10527;52.124;5.196;2022-11-20T06:56:08;16.40;;;9.07;;
20731;SDS011;10527;52.124;5.196;2022-11-20T06:58:35;12.57;;;8.90;;
20731;SDS011;10527;52.124;5.196;2022-11-20T07:01:04;12.93;;;8.57;;
20731;SDS011;10527;52.124;5.196;2022-11-20T07:03:36;11.67;;;8.57;;
20731;SDS011;10527;52.124;5.196;2022-11-20T07:06:04;13.80;;;9.37;;
20731;SDS011;10527;52.124;5.196;2022-11-20T07:08:33;13.47;;;8.87;;
20731;SDS011;10527;52.124;5.196;2022-11-20T07:11:01;11.97;;;8.40;;
20731;SDS011;10527;52.124;5.196;2022-11-20T07:13:31;11.77;;;8.10;;
20731;SDS011;10527;52.124;5.196;2022-11-20T07:15:59;11.03;;;7.90;;
20731;SDS011;10527;52.124;5.196;2022-11-20T07:18:29;13.37;;;8.47;;
20731;SDS011;10527;52.124;5.196;2022-11-20T07:20:56;14.60;;;9.07;;
20731;SDS011;10527;52.124;5.196;2022-11-20T07:23:26;13.03;;;8.60;;
20731;SDS011;10527;52.124;5.196;2022-11-20T07:25:53;13.57;;;8.80;;
20731;SDS011;10527;52.124;5.196;2022-11-20T07:28:19;11.77;;;8.33;;
20731;SDS011;10527;52.124;5.196;2022-11-20T07:30:51;12.40;;;8.23;;
20731;SDS011;10527;52.124;5.196;2022-11-20T07:33:26;11.70;;;8.10;;
20731;SDS011;10527;52.124;5.196;2022-11-20T07:35:54;12.90;;;8.53;;
20731;SDS011;10527;52.124;5.196;2022-11-20T07:38:20;13.03;;;8.57;;
20731;SDS011;10527;52.124;5.196;2022-11-20T07:40:47;10.93;;;8.20;;
20731;SDS011;10527;52.124;5.196;2022-11-20T07:43:15;11.17;;;7.80;;
20731;SDS011;10527;52.124;5.196;2022-11-20T07:45:41;11.57;;;8.70;;
20731;SDS011;10527;52.124;5.196;2022-11-20T07:48:08;13.53;;;9.33;;
20731;SDS011;10527;52.124;5.196;2022-11-20T07:50:35;12.30;;;8.83;;
20731;SDS011;10527;52.124;5.196;2022-11-20T07:53:02;12.47;;;8.90;;
20731;SDS011;10527;52.124;5.196;2022-11-20T07:55:31;11.43;;;8.87;;
20731;SDS011;10527;52.124;5.196;2022-11-20T07:57:59;11.67;;;8.67;;
20731;SDS011;10527;52.124;5.196;2022-11-20T08:00:26;10.80;;;8.67;;
20731;SDS011;10527;52.124;5.196;2022-11-20T08:02:53;12.00;;;8.80;;
20731;SDS011;10527;52.124;5.196;2022-11-20T08:05:20;12.43;;;9.07;;
20731;SDS011;10527;52.124;5.196;2022-11-20T08:07:47;13.53;;;9.70;;
20731;SDS011;10527;52.124;5.196;2022-11-20T08:10:14;14.17;;;9.80;;
20731;SDS011;10527;52.124;5.196;2022-11-20T08:12:46;14.77;;;8.40;;
20731;SDS011;10527;52.124;5.196;2022-11-20T08:15:33;11.83;;;8.30;;
20731;SDS011;10527;52.124;5.196;2022-11-20T08:18:05;12.80;;;9.07;;
20731;SDS011;10527;52.124;5.196;2022-11-20T08:21:03;13.53;;;9.07;;
20731;SDS011;10527;52.124;5.196;2022-11-20T08:23:33;15.20;;;9.37;;
20731;SDS011;10527;52.124;5.196;2022-11-20T08:26:00;13.63;;;9.27;;
20731;SDS011;10527;52.124;5.196;2022-11-20T08:28:26;13.67;;;9.17;;
20731;SDS011;10527;52.124;5.196;2022-11-20T08:30:57;13.27;;;9.07;;
20731;SDS011;10527;52.124;5.196;2022-11-20T08:33:29;13.40;;;9.40;;
20731;SDS011;10527;52.124;5.196;2022-11-20T08:35:59;12.07;;;8.63;;
20731;SDS011;10527;52.124;5.196;2022-11-20T08:38:30;12.67;;;8.90;;
20731;SDS011;10527;52.124;5.196;2022-11-20T08:41:02;12.73;;;8.93;;
20731;SDS011;10527;52.124;5.196;2022-11-20T08:43:49;15.03;;;10.40;;
20731;SDS011;10527;52.124;5.196;2022-11-20T08:46:17;11.20;;;8.83;;
20731;SDS011;10527;52.124;5.196;2022-11-20T08:48:44;15.57;;;10.53;;
20731;SDS011;10527;52.124;5.196;2022-11-20T08:51:11;13.63;;;9.67;;
20731;SDS011;10527;52.124;5.196;2022-11-20T08:53:39;14.20;;;9.70;;
20731;SDS011;10527;52.124;5.196;2022-11-20T08:56:07;14.90;;;10.50;;
20731;SDS011;10527;52.124;5.196;2022-11-20T08:58:35;22.00;;;10.07;;
20731;SDS011;10527;52.124;5.196;2022-11-20T09:01:24;14.47;;;10.00;;
20731;SDS011;10527;52.124;5.196;2022-11-20T09:03:59;13.50;;;9.07;;
20731;SDS011;10527;52.124;5.196;2022-11-20T09:06:26;13.50;;;9.73;;
20731;SDS011;10527;52.124;5.196;2022-11-20T09:08:53;14.17;;;10.50;;
20731;SDS011;10527;52.124;5.196;2022-11-20T09:11:21;13.17;;;9.63;;
20731;SDS011;10527;52.124;5.196;2022-11-20T09:13:48;15.90;;;10.53;;
20731;SDS011;10527;52.124;5.196;2022-11-20T09:16:15;13.47;;;9.53;;
20731;SDS011;10527;52.124;5.196;2022-11-20T09:18:42;16.23;;;11.57;;
20731;SDS011;10527;52.124;5.196;2022-11-20T09:21:09;14.80;;;10.80;;
20731;SDS011;10527;52.124;5.196;2022-11-20T09:23:40;17.27;;;11.70;;
20731;SDS011;10527;52.124;5.196;2022-11-20T09:26:11;16.00;;;11.50;;
20731;SDS011;10527;52.124;5.196;2022-11-20T09:28:39;15.80;;;10.70;;
20731;SDS011;10527;52.124;5.196;2022-11-20T09:31:15;15.93;;;10.70;;
20731;SDS011;10527;52.124;5.196;2022-11-20T09:33:50;16.07;;;10.63;;
20731;SDS011;10527;52.124;5.196;2022-11-20T09:36:18;16.50;;;11.10;;
20731;SDS011;10527;52.124;5.196;2022-11-20T09:38:45;16.17;;;11.63;;
20731;SDS011;10527;52.124;5.196;2022-11-20T09:44:02;17.27;;;11.77;;
20731;SDS011;10527;52.124;5.196;2022-11-20T09:47:11;14.03;;;10.53;;
20731;SDS011;10527;52.124;5.196;2022-11-20T09:50:25;15.17;;;10.43;;
20731;SDS011;10527;52.124;5.196;2022-11-20T09:56:13;17.33;;;10.60;;
20731;SDS011;10527;52.124;5.196;2022-11-20T09:58:54;16.17;;;10.90;;
20731;SDS011;10527;52.124;5.196;2022-11-20T10:01:26;15.77;;;10.50;;
20731;SDS011;10527;52.124;5.196;2022-11-20T10:06:32;15.20;;;10.93;;
20731;SDS011;10527;52.124;5.196;2022-11-20T10:17:59;17.27;;;11.10;;
20731;SDS011;10527;52.124;5.196;2022-11-20T10:20:49;14.77;;;10.63;;
20731;SDS011;10527;52.124;5.196;2022-11-20T10:27:03;15.63;;;11.33;;
20731;SDS011;10527;52.124;5.196;2022-11-20T10:32:41;14.30;;;10.40;;
20731;SDS011;10527;52.124;5.196;2022-11-20T10:35:17;16.23;;;11.50;;
20731;SDS011;10527;52.124;5.196;2022-11-20T10:37:56;15.90;;;10.93;;
20731;SDS011;10527;52.124;5.196;2022-11-20T10:43:17;15.63;;;11.73;;
20731;SDS011;10527;52.124;5.196;2022-11-20T10:48:30;16.50;;;12.03;;
20731;SDS011;10527;52.124;5.196;2022-11-20T10:51:10;17.37;;;11.67;;
20731;SDS011;10527;52.124;5.196;2022-11-20T10:57:04;19.47;;;11.60;;
20731;SDS011;10527;52.124;5.196;2022-11-20T11:00:06;17.23;;;12.10;;
20731;SDS011;10527;52.124;5.196;2022-11-20T11:02:44;20.93;;;12.50;;
20731;SDS011;10527;52.124;5.196;2022-11-20T11:08:01;17.70;;;12.03;;
20731;SDS011;10527;52.124;5.196;2022-11-20T11:13:22;16.97;;;12.30;;
20731;SDS011;10527;52.124;5.196;2022-11-20T11:15:53;18.33;;;12.63;;
20731;SDS011;10527;52.124;5.196;2022-11-20T11:20:54;17.93;;;13.00;;
20731;SDS011;10527;52.124;5.196;2022-11-20T11:23:34;19.00;;;13.27;;
20731;SDS011;10527;52.124;5.196;2022-11-20T11:26:04;19.53;;;12.33;;
20731;SDS011;10527;52.124;5.196;2022-11-20T11:31:29;20.00;;;12.93;;
20731;SDS011;10527;52.124;5.196;2022-11-20T11:36:51;21.70;;;14.00;;
20731;SDS011;10527;52.124;5.196;2022-11-20T11:39:23;19.13;;;13.33;;
20731;SDS011;10527;52.124;5.196;2022-11-20T11:41:53;23.63;;;15.33;;
20731;SDS011;10527;52.124;5.196;2022-11-20T11:44:21;21.10;;;13.97;;
20731;SDS011;10527;52.124;5.196;2022-11-20T11:52:42;23.70;;;15.37;;
20731;SDS011;10527;52.124;5.196;2022-11-20T12:04:30;20.93;;;13.33;;
20731;SDS011;10527;52.124;5.196;2022-11-20T12:07:18;24.57;;;15.17;;
20731;SDS011;10527;52.124;5.196;2022-11-20T12:10:23;24.27;;;14.63;;
20731;SDS011;10527;52.124;5.196;2022-11-20T12:13:19;23.57;;;14.17;;
20731;SDS011;10527;52.124;5.196;2022-11-20T12:15:59;23.27;;;14.43;;
20731;SDS011;10527;52.124;5.196;2022-11-20T12:18:29;25.77;;;15.73;;
20731;SDS011;10527;52.124;5.196;2022-11-20T12:21:03;27.33;;;16.60;;
20731;SDS011;10527;52.124;5.196;2022-11-20T12:23:50;24.27;;;15.83;;
20731;SDS011;10527;52.124;5.196;2022-11-20T12:27:03;22.67;;;15.40;;
20731;SDS011;10527;52.124;5.196;2022-11-20T12:30:01;22.77;;;15.30;;
20731;SDS011;10527;52.124;5.196;2022-11-20T12:41:41;24.60;;;15.83;;
20731;SDS011;10527;52.124;5.196;2022-11-20T12:44:42;25.17;;;15.97;;
20731;SDS011;10527;52.124;5.196;2022-11-20T12:47:45;27.73;;;15.80;;
20731;SDS011;10527;52.124;5.196;2022-11-20T12:51:04;28.40;;;15.70;;
20731;SDS011;10527;52.124;5.196;2022-11-20T13:05:34;25.83;;;14.57;;
20731;SDS011;10527;52.124;5.196;2022-11-20T13:08:33;26.50;;;16.20;;
20731;SDS011;10527;52.124;5.196;2022-11-20T13:14:11;28.40;;;17.70;;
20731;SDS011;10527;52.124;5.196;2022-11-20T13:17:30;27.00;;;15.27;;
20731;SDS011;10527;52.124;5.196;2022-11-20T13:20:02;25.97;;;15.67;;
20731;SDS011;10527;52.124;5.196;2022-11-20T13:22:59;23.27;;;14.53;;
20731;SDS011;10527;52.124;5.196;2022-11-20T13:30:54;26.10;;;16.83;;
20731;SDS011;10527;52.124;5.196;2022-11-20T13:33:30;24.93;;;15.97;;
20731;SDS011;10527;52.124;5.196;2022-11-20T13:36:19;27.43;;;16.60;;
20731;SDS011;10527;52.124;5.196;2022-11-20T13:38:53;27.60;;;17.57;;
20731;SDS011;10527;52.124;5.196;2022-11-20T13:44:14;29.83;;;16.30;;
20731;SDS011;10527;52.124;5.196;2022-11-20T13:46:56;27.50;;;16.23;;
20731;SDS011;10527;52.124;5.196;2022-11-20T13:52:21;29.47;;;16.03;;
20731;SDS011;10527;52.124;5.196;2022-11-20T13:55:02;30.53;;;15.40;;
20731;SDS011;10527;52.124;5.196;2022-11-20T14:01:08;29.07;;;15.93;;
20731;SDS011;10527;52.124;5.196;2022-11-20T14:03:45;27.27;;;15.53;;
20731;SDS011;10527;52.124;5.196;2022-11-20T14:06:32;30.03;;;16.73;;
20731;SDS011;10527;52.124;5.196;2022-11-20T14:09:48;31.30;;;16.33;;
20731;SDS011;10527;52.124;5.196;2022-11-20T14:12:03;27.10;;;16.80;;
20731;SDS011;10527;52.124;5.196;2022-11-20T14:14:47;23.00;;;16.07;;
20731;SDS011;10527;52.124;5.196;2022-11-20T14:17:30;26.90;;;16.50;;
20731;SDS011;10527;52.124;5.196;2022-11-20T14:20:02;30.33;;;17.90;;
20731;SDS011;10527;52.124;5.196;2022-11-20T14:22:32;28.40;;;16.30;;
20731;SDS011;10527;52.124;5.196;2022-11-20T14:27:40;30.07;;;17.47;;
20731;SDS011;10527;52.124;5.196;2022-11-20T14:30:12;27.93;;;16.30;;
20731;SDS011;10527;52.124;5.196;2022-11-20T14:32:43;25.73;;;16.27;;
20731;SDS011;10527;52.124;5.196;2022-11-20T14:35:18;27.63;;;16.53;;
20731;SDS011;10527;52.124;5.196;2022-11-20T14:37:52;26.50;;;16.23;;
20731;SDS011;10527;52.124;5.196;2022-11-20T14:40:25;27.10;;;16.63;;
20731;SDS011;10527;52.124;5.196;2022-11-20T14:43:01;26.07;;;16.10;;
20731;SDS011;10527;52.124;5.196;2022-11-20T14:45:58;28.60;;;16.87;;
20731;SDS011;10527;52.124;5.196;2022-11-20T14:51:15;25.13;;;16.33;;
20731;SDS011;10527;52.124;5.196;2022-11-20T14:54:11;28.27;;;15.57;;
20731;SDS011;10527;52.124;5.196;2022-11-20T14:57:01;26.23;;;16.33;;
20731;SDS011;10527;52.124;5.196;2022-11-20T14:59:31;28.13;;;17.10;;
20731;SDS011;10527;52.124;5.196;2022-11-20T15:02:09;26.07;;;16.40;;
20731;SDS011;10527;52.124;5.196;2022-11-20T15:04:48;22.13;;;15.27;;
20731;SDS011;10527;52.124;5.196;2022-11-20T15:07:26;24.17;;;16.17;;
20731;SDS011;10527;52.124;5.196;2022-11-20T15:12:31;28.00;;;17.00;;
20731;SDS011;10527;52.124;5.196;2022-11-20T15:15:03;21.13;;;14.10;;
20731;SDS011;10527;52.124;5.196;2022-11-20T15:17:32;22.43;;;15.60;;
20731;SDS011;10527;52.124;5.196;2022-11-20T15:20:08;25.03;;;15.57;;
20731;SDS011;10527;52.124;5.196;2022-11-20T15:22:42;20.83;;;14.30;;
20731;SDS011;10527;52.124;5.196;2022-11-20T15:25:14;22.77;;;14.87;;
20731;SDS011;10527;52.124;5.196;2022-11-20T15:27:43;21.67;;;13.80;;
20731;SDS011;10527;52.124;5.196;2022-11-20T15:30:13;23.13;;;15.30;;
20731;SDS011;10527;52.124;5.196;2022-11-20T15:32:46;22.70;;;14.73;;
20731;SDS011;10527;52.124;5.196;2022-11-20T15:35:15;22.30;;;14.20;;
20731;SDS011;10527;52.124;5.196;2022-11-20T15:37:42;20.63;;;14.13;;
20731;SDS011;10527;52.124;5.196;2022-11-20T15:40:09;20.03;;;13.67;;
20731;SDS011;10527;52.124;5.196;2022-11-20T15:42:37;20.77;;;13.63;;
20731;SDS011;10527;52.124;5.196;2022-11-20T15:45:03;21.23;;;14.67;;
20731;SDS011;10527;52.124;5.196;2022-11-20T15:47:34;19.40;;;13.43;;
20731;SDS011;10527;52.124;5.196;2022-11-20T15:50:02;20.27;;;13.10;;
20731;SDS011;10527;52.124;5.196;2022-11-20T15:52:29;20.00;;;13.93;;
20731;SDS011;10527;52.124;5.196;2022-11-20T15:55:10;18.83;;;12.60;;
20731;SDS011;10527;52.124;5.196;2022-11-20T15:57:37;20.37;;;13.93;;
20731;SDS011;10527;52.124;5.196;2022-11-20T16:00:04;19.00;;;12.57;;
20731;SDS011;10527;52.124;5.196;2022-11-20T16:02:34;19.23;;;13.13;;
20731;SDS011;10527;52.124;5.196;2022-11-20T16:05:00;20.27;;;13.23;;
20731;SDS011;10527;52.124;5.196;2022-11-20T16:07:27;24.13;;;18.60;;
20731;SDS011;10527;52.124;5.196;2022-11-20T16:09:54;19.30;;;14.03;;
20731;SDS011;10527;52.124;5.196;2022-11-20T16:12:22;18.63;;;13.97;;
20731;SDS011;10527;52.124;5.196;2022-11-20T16:15:10;17.10;;;12.33;;
20731;SDS011;10527;52.124;5.196;2022-11-20T16:17:56;19.57;;;13.03;;
20731;SDS011;10527;52.124;5.196;2022-11-20T16:20:23;18.83;;;13.17;;
20731;SDS011;10527;52.124;5.196;2022-11-20T16:22:49;19.17;;;13.93;;
20731;SDS011;10527;52.124;5.196;2022-11-20T16:25:16;20.37;;;13.70;;
20731;SDS011;10527;52.124;5.196;2022-11-20T16:27:43;22.37;;;13.17;;
20731;SDS011;10527;52.124;5.196;2022-11-20T16:30:10;19.17;;;12.73;;
20731;SDS011;10527;52.124;5.196;2022-11-20T16:32:36;22.30;;;13.40;;
20731;SDS011;10527;52.124;5.196;2022-11-20T16:35:04;18.97;;;13.40;;
20731;SDS011;10527;52.124;5.196;2022-11-20T16:37:33;16.67;;;11.97;;
20731;SDS011;10527;52.124;5.196;2022-11-20T16:40:00;23.40;;;15.00;;
20731;SDS011;10527;52.124;5.196;2022-11-20T16:42:27;20.73;;;13.80;;
20731;SDS011;10527;52.124;5.196;2022-11-20T16:44:53;18.37;;;13.13;;
20731;SDS011;10527;52.124;5.196;2022-11-20T16:47:20;20.50;;;13.57;;
20731;SDS011;10527;52.124;5.196;2022-11-20T16:49:47;18.57;;;13.03;;
20731;SDS011;10527;52.124;5.196;2022-11-20T16:52:13;21.03;;;14.27;;
20731;SDS011;10527;52.124;5.196;2022-11-20T16:54:40;18.93;;;12.77;;
20731;SDS011;10527;52.124;5.196;2022-11-20T16:57:07;18.47;;;13.47;;
20731;SDS011;10527;52.124;5.196;2022-11-20T16:59:34;17.97;;;12.27;;